createdAt,value
2019-01-03T00:02:20.622Z,2.50
2019-01-03T00:06:43.005Z,2.50
2019-01-03T00:11:05.343Z,2.50
2019-01-03T00:15:37.932Z,2.50
2019-01-03T00:20:00.269Z,2.50
2019-01-03T00:28:52.176Z,2.50
2019-01-03T00:48:52.435Z,2.40
2019-01-03T01:29:04.620Z,2.40
2019-01-03T01:59:05.600Z,2.40
2019-01-03T02:34:06.191Z,2.30
2019-01-03T02:50:29.772Z,2.30
2019-01-03T03:18:34.405Z,2.60
2019-01-03T03:30:12.947Z,3.20
2019-01-03T03:37:57.356Z,2.80
2019-01-03T03:42:35.971Z,2.90
2019-01-03T04:04:40.959Z,3.40
2019-01-03T04:10:57.098Z,3.10
2019-01-03T04:15:19.488Z,3.10
2019-01-03T04:19:58.584Z,3.10
2019-01-03T04:24:21.030Z,3.10
2019-01-03T04:28:43.124Z,3.20
2019-01-03T04:33:05.457Z,3.20
2019-01-03T04:37:27.928Z,3.20
2019-01-03T04:41:57.223Z,3.20
2019-01-03T04:46:23.621Z,3.30
2019-01-03T04:51:02.430Z,3.30
2019-01-03T04:57:31.423Z,4.10
2019-01-03T05:02:22.715Z,3.50
2019-01-03T05:06:45.096Z,3.50
2019-01-03T05:11:17.862Z,3.50
2019-01-03T05:22:57.744Z,3.60
2019-01-03T05:27:19.951Z,3.70
2019-01-03T05:31:49.488Z,3.70
2019-01-03T05:36:11.499Z,3.70
2019-01-03T05:40:40.596Z,3.70
2019-01-03T05:44:55.691Z,3.80
2019-01-03T05:49:34.671Z,3.80
2019-01-03T05:59:55.068Z,3.80
2019-01-03T06:08:42.004Z,3.80
2019-01-03T06:13:11.527Z,3.80
2019-01-03T06:17:50.335Z,3.80
2019-01-03T06:22:12.828Z,3.90
2019-01-03T06:26:39.047Z,3.90
2019-01-03T06:31:21.182Z,3.80
2019-01-03T06:36:36.308Z,3.80
2019-01-03T06:41:09.400Z,3.80
2019-01-03T06:45:35.298Z,3.80
2019-01-03T06:50:04.542Z,3.80
2019-01-03T06:54:46.139Z,3.70
2019-01-03T06:59:15.396Z,3.70
2019-01-03T07:03:42.071Z,3.60
2019-01-03T07:08:05.121Z,3.70
2019-01-03T07:39:27.388Z,5.40
2019-01-03T08:44:51.823Z,4.20
2019-01-03T08:49:14.403Z,4.20
2019-01-03T08:53:36.810Z,4.20
2019-01-03T10:05:54.920Z,4.80
2019-01-03T10:09:59.483Z,4.90
2019-01-03T10:14:04.035Z,4.90
2019-01-03T10:18:08.554Z,5.00
2019-01-03T10:22:13.145Z,5.10
2019-01-03T10:26:17.715Z,5.10
2019-01-03T10:30:22.242Z,5.20
2019-01-03T10:34:26.775Z,5.20
2019-01-03T10:38:31.301Z,5.20
2019-01-03T10:42:35.847Z,5.20
2019-01-03T11:44:53.371Z,5.70
2019-01-03T11:50:55.076Z,5.70
2019-01-03T12:09:49.435Z,5.70
2019-01-03T12:19:34.727Z,5.90
2019-01-03T12:24:35.240Z,5.80
2019-01-03T12:28:39.802Z,5.80
2019-01-03T12:32:44.400Z,5.90
2019-01-03T12:36:48.929Z,6.10
2019-01-03T12:40:53.467Z,6.10
2019-01-03T12:44:58.010Z,6.20
2019-01-03T12:49:03.207Z,6.30
2019-01-03T12:53:07.962Z,6.30
2019-01-03T12:57:12.523Z,6.30
2019-01-03T13:01:17.072Z,6.40
2019-01-03T13:05:21.602Z,6.50
2019-01-03T13:09:26.155Z,6.50
2019-01-03T13:13:30.827Z,6.60
2019-01-03T13:17:35.388Z,6.50
2019-01-03T13:21:43.877Z,6.60
2019-01-03T13:25:50.778Z,6.60
2019-01-03T13:29:57.963Z,6.60
2019-01-03T13:34:03.567Z,6.70
2019-01-03T13:38:09.140Z,6.60
2019-01-03T13:42:13.704Z,6.70
2019-01-03T13:46:18.218Z,6.60
2019-01-03T13:50:22.788Z,6.60
2019-01-03T13:54:27.347Z,6.50
2019-01-03T13:58:31.899Z,6.50
2019-01-03T14:02:36.438Z,6.50
2019-01-03T14:06:40.967Z,6.60
2019-01-03T14:10:45.549Z,6.50
2019-01-03T14:14:50.093Z,6.50
2019-01-03T14:18:54.666Z,6.50
2019-01-03T14:22:59.271Z,6.60
2019-01-03T14:27:03.786Z,6.50
2019-01-03T14:31:08.335Z,6.50
2019-01-03T14:35:12.887Z,6.50
2019-01-03T14:39:17.455Z,6.50
2019-01-03T14:43:22.007Z,6.50
2019-01-03T14:47:26.526Z,6.50
2019-01-03T14:51:31.088Z,6.50
2019-01-03T14:55:35.624Z,6.50
2019-01-03T14:59:40.168Z,6.50
2019-01-03T15:07:56.523Z,6.40
2019-01-03T15:12:01.118Z,6.50
2019-01-03T15:16:05.678Z,6.40
2019-01-03T15:20:11.715Z,6.40
2019-01-03T15:24:16.320Z,6.30
2019-01-03T15:28:20.863Z,6.20
2019-01-03T15:32:25.542Z,6.20
2019-01-03T15:36:30.122Z,6.10
2019-01-03T15:40:34.683Z,6.10
2019-01-03T15:44:39.222Z,6.00
2019-01-03T16:05:07.435Z,5.60
2019-01-03T17:00:00.551Z,4.90
2019-01-03T17:07:41.908Z,4.90
2019-01-03T17:13:57.185Z,4.90
2019-01-03T17:26:55.439Z,4.70
2019-01-03T17:31:00.014Z,4.70
2019-01-03T18:21:50.779Z,4.00
2019-01-03T18:27:51.943Z,3.90
2019-01-03T18:31:56.508Z,3.90
2019-01-03T18:42:38.245Z,3.70
2019-01-03T18:55:42.899Z,3.50
2019-01-03T18:59:46.394Z,3.10
2019-01-03T19:03:49.997Z,2.60
2019-01-03T19:07:53.466Z,2.50
2019-01-03T19:17:13.415Z,2.30
2019-01-03T19:21:18.146Z,2.70
2019-01-03T19:25:22.749Z,2.80
2019-01-03T19:29:27.454Z,2.90
2019-01-03T19:33:32.198Z,2.90
2019-01-03T19:37:36.948Z,3.00
2019-01-03T19:41:41.527Z,2.90
2019-01-03T19:45:46.151Z,3.00
2019-01-03T19:49:50.714Z,3.00
2019-01-03T19:53:55.376Z,3.00
2019-01-03T20:18:19.922Z,3.80
2019-01-03T21:10:34.367Z,5.50
2019-01-03T21:14:38.923Z,2.60
2019-01-03T21:18:46.070Z,2.60
2019-01-03T21:27:16.331Z,4.70
2019-01-03T21:31:20.895Z,2.60
2019-01-03T21:35:25.451Z,2.60
2019-01-03T21:39:29.983Z,2.60
2019-01-03T21:43:34.643Z,2.60
2019-01-03T21:47:39.212Z,2.60
2019-01-03T21:54:52.872Z,2.50
2019-01-03T21:58:57.398Z,2.50
2019-01-03T22:03:02.092Z,2.60
2019-01-03T22:07:06.653Z,2.60
2019-01-03T22:11:11.205Z,2.60
2019-01-03T22:15:15.753Z,2.60
2019-01-03T22:20:01.188Z,3.80
2019-01-03T22:24:05.772Z,2.60
2019-01-03T22:28:10.323Z,2.70
2019-01-03T22:32:14.868Z,2.70
2019-01-03T22:36:19.443Z,2.70
2019-01-03T22:40:23.952Z,2.70
2019-01-03T22:44:28.504Z,2.70
2019-01-03T22:48:33.038Z,2.70
2019-01-03T22:52:37.595Z,2.70
2019-01-03T22:56:42.167Z,2.70
2019-01-03T23:00:50.499Z,2.70
2019-01-03T23:04:55.036Z,2.70
2019-01-03T23:08:59.589Z,2.70
2019-01-03T23:13:04.312Z,2.70
2019-01-03T23:17:08.901Z,2.70
2019-01-03T23:24:37.271Z,2.70
2019-01-03T23:33:58.163Z,3.60
